createdAt,value
2019-02-21T18:25:46.349Z,36.23
2019-02-21T18:28:18.211Z,34.43
2019-02-21T18:30:48.428Z,33.97
2019-02-21T18:33:18.788Z,38.17
2019-02-21T18:35:49.012Z,36.83
2019-02-21T18:38:25.633Z,36.93
2019-02-21T18:41:15.392Z,33.10
2019-02-21T18:43:45.600Z,38.10
2019-02-21T18:46:15.928Z,41.40
2019-02-21T18:48:48.079Z,41.80
2019-02-21T18:51:19.006Z,40.43
2019-02-21T18:53:49.263Z,38.50
2019-02-21T18:56:25.519Z,41.47
2019-02-21T18:59:01.645Z,47.67
2019-02-21T19:01:31.922Z,43.93
2019-02-21T19:04:25.577Z,41.70
2019-02-21T19:07:03.105Z,46.60
2019-02-21T19:09:33.311Z,44.43
2019-02-21T19:12:04.583Z,45.83
2019-02-21T19:14:34.770Z,48.13
2019-02-21T19:17:05.164Z,47.90
2019-02-21T19:19:41.118Z,44.70
2019-02-21T19:22:12.283Z,42.23
2019-02-21T19:24:42.486Z,44.40
2019-02-21T19:27:12.703Z,40.93
2019-02-21T19:29:43.551Z,41.03
2019-02-21T19:32:14.088Z,39.73
2019-02-21T19:34:56.775Z,37.67
2019-02-21T19:37:26.992Z,41.03
2019-02-21T19:39:57.265Z,39.37
2019-02-21T19:42:52.377Z,34.13
2019-02-21T19:45:23.567Z,37.13
2019-02-21T19:47:53.787Z,33.53
2019-02-21T19:50:30.069Z,36.17
2019-02-21T19:53:00.369Z,35.50
2019-02-21T19:55:42.518Z,36.60
2019-02-21T19:58:25.095Z,37.87
2019-02-21T20:01:02.666Z,35.17
2019-02-21T20:04:01.650Z,34.87
2019-02-21T20:06:37.278Z,37.57
2019-02-21T20:09:18.788Z,39.23
2019-02-21T20:11:49.171Z,44.03
2019-02-21T20:14:41.567Z,46.37
2019-02-21T20:17:17.200Z,41.27
2019-02-21T20:19:49.039Z,39.60
2019-02-21T20:22:35.671Z,39.90
2019-02-21T20:25:06.759Z,41.03
2019-02-21T20:27:42.194Z,44.47
2019-02-21T20:30:16.776Z,40.27
2019-02-21T20:32:51.487Z,41.00
2019-02-21T20:35:28.631Z,39.47
2019-02-21T20:37:58.840Z,45.60
2019-02-21T20:40:29.111Z,46.77
2019-02-21T20:43:02.525Z,44.93
2019-02-21T20:45:52.113Z,42.60
2019-02-21T20:48:15.778Z,41.53
2019-02-21T20:50:56.095Z,44.37
2019-02-21T20:53:17.886Z,41.10
2019-02-21T20:55:50.099Z,40.13
2019-02-21T20:58:27.521Z,42.03
2019-02-21T21:00:58.412Z,50.30
2019-02-21T21:03:28.613Z,48.47
2019-02-21T21:05:58.947Z,46.67
2019-02-21T21:08:29.217Z,48.00
2019-02-21T21:11:16.734Z,48.03
2019-02-21T21:13:48.879Z,54.20
2019-02-21T21:16:25.035Z,50.40
2019-02-21T21:18:55.326Z,54.03
2019-02-21T21:21:25.609Z,51.47
2019-02-21T21:23:55.811Z,53.23
2019-02-21T21:26:26.086Z,57.60
2019-02-21T21:28:57.369Z,54.00
2019-02-21T21:31:33.541Z,58.13
2019-02-21T21:34:12.185Z,59.43
2019-02-21T21:36:42.386Z,62.57
2019-02-21T21:39:14.130Z,57.77
2019-02-21T21:41:45.494Z,59.77
2019-02-21T21:44:15.683Z,67.23
2019-02-21T21:46:46.867Z,59.27
2019-02-21T21:49:17.073Z,61.93
2019-02-21T21:51:47.291Z,62.23
2019-02-21T21:54:17.485Z,62.70
2019-02-21T21:57:06.147Z,59.03
2019-02-21T21:59:38.252Z,63.43
2019-02-21T22:02:14.422Z,70.37
2019-02-21T22:04:55.565Z,68.60
2019-02-21T22:07:25.766Z,73.93
2019-02-21T22:09:55.954Z,70.57
2019-02-21T22:12:29.098Z,80.73
2019-02-21T22:14:59.296Z,77.10
2019-02-21T22:17:29.647Z,71.07
2019-02-21T22:19:59.827Z,70.70
2019-02-21T22:22:38.019Z,72.10
2019-02-21T22:25:12.859Z,75.70
2019-02-21T22:27:49.287Z,69.23
2019-02-21T22:30:46.351Z,71.57
2019-02-21T22:33:22.867Z,70.23
2019-02-21T22:35:53.052Z,72.97
2019-02-21T22:38:29.875Z,69.23
2019-02-21T22:41:00.079Z,67.33
2019-02-21T22:43:31.457Z,72.53
2019-02-21T22:46:01.659Z,72.90
2019-02-21T22:48:46.617Z,73.97
2019-02-21T22:51:09.100Z,68.97
2019-02-21T22:53:39.316Z,68.90
2019-02-21T22:56:10.796Z,70.07
2019-02-21T22:58:45.478Z,68.50
2019-02-21T23:01:26.508Z,73.67
2019-02-21T23:04:00.309Z,74.33
2019-02-21T23:06:51.992Z,73.27
2019-02-21T23:09:27.435Z,78.30
2019-02-21T23:11:55.724Z,78.10
2019-02-21T23:14:26.008Z,79.13
2019-02-21T23:16:56.202Z,88.63
2019-02-21T23:19:26.410Z,86.10
2019-02-21T23:21:56.674Z,87.17
2019-02-21T23:24:38.215Z,83.87
2019-02-21T23:27:08.455Z,91.73
2019-02-21T23:29:38.836Z,80.73
2019-02-21T23:32:09.031Z,86.13
2019-02-21T23:34:43.183Z,87.23
2019-02-21T23:37:13.373Z,87.33
2019-02-21T23:40:01.602Z,87.57
2019-02-21T23:42:32.084Z,88.17
2019-02-21T23:45:02.292Z,93.97
2019-02-21T23:47:32.467Z,88.67
2019-02-21T23:50:18.753Z,83.30
2019-02-21T23:52:51.028Z,92.77
2019-02-21T23:55:21.234Z,91.70
2019-02-21T23:58:16.674Z,87.53
